Time;durP1;ratioP1;P1;durP2;ratioP2;P2;SDS_P1;SDS_P2;PMS_P1;PMS_P2;Temp;Humidity;BMP_temperature;BMP_pressure;BME280_temperature;BME280_humidity;BME280_pressure;Samples;Min_cycle;Max_cycle;Signal;HPM_P1;HPM_P2
2021/12/06 00:01:44;;;;;;;;;;;;;;;8.32;59.99;99991.66;4972490;28;6893;-73
2021/12/06 00:04:20;;;;;;;;;;;;;;;8.29;59.17;99994.03;4970732;28;7047;-73
2021/12/06 00:06:53;;;;;;;;;;;;;;;8.27;59.88;99991.44;4952587;28;7308;-73
2021/12/06 00:09:24;;;;;;;;;;;;;;;8.26;59.34;99994.78;4972493;28;6816;-73
2021/12/06 00:11:56;;;;;;;;;;;;;;;8.24;59.53;99982.75;4972949;28;6815;-73
2021/12/06 00:14:29;;;;;;;;;;;;;;;8.25;60.59;99997.25;4969366;28;7270;-73
2021/12/06 00:17:12;;;;;;;;;;;;;;;8.25;59.61;99997.25;4988867;28;7149;-73
2021/12/06 00:19:40;;;;;;;;;;;;;;;8.24;60.58;100008.28;4973902;28;7206;-73
2021/12/06 00:22:15;;;;;;;;;;;;;;;8.24;59.74;100016.78;4971532;28;7026;-73
2021/12/06 00:24:42;;;;;;;;;;;;;;;8.26;60.18;100019.44;4957884;28;7479;-73
2021/12/06 00:27:07;;;;;;;;;;;;;;;8.29;60.35;100029.78;4973172;28;6876;-73
2021/12/06 00:29:33;;;;;;;;;;;;;;;8.31;60.75;100038.44;4972506;28;6776;-73
2021/12/06 00:32:00;;;;;;;;;;;;;;;8.32;60.10;100037.63;4972043;28;6855;-73
2021/12/06 00:34:31;;;;;;;;;;;;;;;8.33;60.36;100041.94;4972385;28;6812;-73
2021/12/06 00:37:17;;;;;;;;;;;;;;;8.32;60.02;100051.25;4955745;28;6892;-73
2021/12/06 00:40:04;;;;;;;;;;;;;;;8.33;60.06;100053.00;4968708;28;8915;-73
2021/12/06 00:42:33;;;;;;;;;;;;;;;8.34;59.82;100049.66;4970887;28;7177;-74
2021/12/06 00:45:01;;;;;;;;;;;;;;;8.38;60.14;100055.81;4972087;28;6820;-74
2021/12/06 00:47:27;;;;;;;;;;;;;;;8.41;60.23;100060.19;4972146;28;7188;-74
2021/12/06 00:49:54;;;;;;;;;;;;;;;8.43;60.02;100056.94;4972478;28;6808;-74
2021/12/06 00:52:21;;;;;;;;;;;;;;;8.41;59.79;100061.09;4974488;28;6804;-74
2021/12/06 00:54:49;;;;;;;;;;;;;;;8.40;59.37;100055.88;4970297;28;8300;-74
2021/12/06 00:57:15;;;;;;;;;;;;;;;8.39;59.57;100057.56;4972178;28;7173;-74
2021/12/06 00:59:43;;;;;;;;;;;;;;;8.40;60.29;100061.88;4975285;28;6800;-74
2021/12/06 01:02:13;;;;;;;;;;;;;;;8.39;59.44;100065.22;4970589;28;6824;-74
2021/12/06 01:04:45;;;;;;;;;;;;;;;8.39;58.97;100066.91;4983798;28;6982;-74
2021/12/06 01:07:12;;;;;;;;;;;;;;;8.38;60.36;100070.25;4974191;28;6896;-74
2021/12/06 01:09:38;;;;;;;;;;;;;;;8.34;60.49;100061.56;4973082;28;6896;-74
2021/12/06 01:12:05;;;;;;;;;;;;;;;8.34;60.15;100069.22;4978548;28;6900;-74
2021/12/06 01:14:31;;;;;;;;;;;;;;;8.33;60.06;100072.56;4975103;28;6881;-74
2021/12/06 01:16:57;;;;;;;;;;;;;;;8.33;59.38;100070.88;4973954;28;6799;-74
2021/12/06 01:19:28;;;;;;;;;;;;;;;8.32;60.45;100069.13;4975165;28;7027;-74
2021/12/06 01:24:54;;;;;;;;;;;;;;;8.28;60.31;100084.22;4976936;28;6812;-74
2021/12/06 01:40:52;;;;;;;;;;;;;;;8.29;60.27;100111.50;4975559;28;7132;-74
2021/12/06 01:43:18;;;;;;;;;;;;;;;8.30;59.48;100116.69;4976392;28;7086;-74
2021/12/06 01:45:44;;;;;;;;;;;;;;;8.30;60.17;100119.25;4974706;28;6799;-74
2021/12/06 01:48:10;;;;;;;;;;;;;;;8.29;60.35;100116.59;4976916;28;7004;-74
2021/12/06 01:50:35;;;;;;;;;;;;;;;8.29;59.82;100116.59;4976432;28;7908;-74
2021/12/06 01:53:04;;;;;;;;;;;;;;;8.29;60.60;100119.16;4975846;28;6792;-74
2021/12/06 01:55:35;;;;;;;;;;;;;;;8.28;60.77;100123.41;4960883;28;7341;-74
2021/12/06 01:58:06;;;;;;;;;;;;;;;8.27;60.37;100125.88;4960647;28;6887;-74
2021/12/06 02:00:51;;;;;;;;;;;;;;;8.25;59.43;100130.03;4974038;28;7626;-74
2021/12/06 02:03:17;;;;;;;;;;;;;;;8.22;60.10;100128.19;4976427;28;6876;-74
2021/12/06 02:05:48;;;;;;;;;;;;;;;8.23;60.54;100141.84;4979013;28;6807;-74
2021/12/06 02:08:14;;;;;;;;;;;;;;;8.24;60.32;100139.34;4975385;28;6803;-74
2021/12/06 02:10:41;;;;;;;;;;;;;;;8.27;59.95;100151.41;4976690;28;6876;-74
2021/12/06 02:13:09;;;;;;;;;;;;;;;8.26;59.64;100157.31;4977465;28;6804;-74
2021/12/06 02:15:46;;;;;;;;;;;;;;;8.23;59.88;100152.06;4976081;28;6812;-74
2021/12/06 02:18:42;;;;;;;;;;;;;;;8.17;60.04;100156.00;4976315;28;7139;-74
2021/12/06 02:21:29;;;;;;;;;;;;;;;8.15;60.31;100155.06;4978417;28;6816;-74
2021/12/06 02:23:56;;;;;;;;;;;;;;;8.15;59.65;100160.16;4977308;28;7060;-74
2021/12/06 02:26:24;;;;;;;;;;;;;;;8.15;60.77;100165.28;4976738;28;6800;-74
2021/12/06 02:28:51;;;;;;;;;;;;;;;8.14;60.90;100166.06;4975724;28;7125;-74
2021/12/06 02:31:19;;;;;;;;;;;;;;;8.16;60.41;100167.03;4974695;28;7063;-74
2021/12/06 02:33:48;;;;;;;;;;;;;;;8.17;60.10;100173.88;4971408;28;7892;-74
2021/12/06 02:36:17;;;;;;;;;;;;;;;8.20;60.47;100179.16;4974170;28;6828;-74
2021/12/06 02:38:44;;;;;;;;;;;;;;;8.22;60.71;100174.13;4973708;28;7033;-74
2021/12/06 02:41:09;;;;;;;;;;;;;;;8.24;60.22;100174.22;4959145;28;7424;-74
2021/12/06 02:43:37;;;;;;;;;;;;;;;8.25;59.89;100165.78;4973807;28;7106;-74
2021/12/06 02:46:05;;;;;;;;;;;;;;;8.27;60.48;100176.94;4989414;28;8294;-74
2021/12/06 02:48:32;;;;;;;;;;;;;;;8.29;59.75;100183.88;4973815;28;6812;-74
2021/12/06 02:51:01;;;;;;;;;;;;;;;8.30;60.79;100183.09;4976300;28;6965;-74
2021/12/06 02:53:30;;;;;;;;;;;;;;;8.29;60.01;100181.34;4976480;28;6823;-74
2021/12/06 02:55:59;;;;;;;;;;;;;;;8.28;60.63;100181.25;4972390;28;7230;-74
2021/12/06 03:01:10;;;;;;;;;;;;;;;8.27;59.81;100184.59;4989837;28;7001;-74
2021/12/06 03:03:36;;;;;;;;;;;;;;;8.27;60.30;100182.03;4974444;28;6804;-74
2021/12/06 03:06:03;;;;;;;;;;;;;;;8.28;60.28;100188.91;4971774;28;6800;-74
2021/12/06 03:08:46;;;;;;;;;;;;;;;8.29;60.78;100193.22;4955648;28;7001;-74
2021/12/06 03:11:36;;;;;;;;;;;;;;;8.28;60.22;100191.47;4984841;28;6894;-74
2021/12/06 03:14:03;;;;;;;;;;;;;;;8.29;59.89;100198.31;4964770;28;7423;-74
2021/12/06 03:16:29;;;;;;;;;;;;;;;8.30;60.72;100200.06;4953981;28;7148;-74
2021/12/06 03:18:56;;;;;;;;;;;;;;;8.31;60.70;100207.81;4955992;28;7135;-74
2021/12/06 03:21:24;;;;;;;;;;;;;;;8.33;59.85;100210.47;4972502;28;7861;-74
2021/12/06 03:23:54;;;;;;;;;;;;;;;8.34;60.00;100214.78;4968105;28;6824;-74
2021/12/06 03:26:20;;;;;;;;;;;;;;;8.36;60.64;100215.75;4963619;28;6884;-74
2021/12/06 03:28:46;;;;;;;;;;;;;;;8.38;60.36;100215.84;4973292;28;7002;-74
2021/12/06 03:31:14;;;;;;;;;;;;;;;8.39;60.34;100223.56;4968221;28;7099;-74
2021/12/06 03:33:48;;;;;;;;;;;;;;;8.40;60.43;100220.22;4962930;28;7003;-74
2021/12/06 03:36:18;;;;;;;;;;;;;;;8.44;60.78;100223.81;4952819;28;7709;-73
2021/12/06 03:38:44;;;;;;;;;;;;;;;8.46;60.02;100228.22;4970614;28;6819;-73
2021/12/06 03:41:13;;;;;;;;;;;;;;;8.51;60.65;100233.59;4969888;28;7002;-73
2021/12/06 03:43:40;;;;;;;;;;;;;;;8.54;60.42;100235.44;4954053;28;6876;-73
2021/12/06 03:46:08;;;;;;;;;;;;;;;8.57;61.10;100240.69;4968738;28;6804;-74
2021/12/06 03:48:34;;;;;;;;;;;;;;;8.58;60.60;100234.78;4971539;28;7384;-74
2021/12/06 03:51:01;;;;;;;;;;;;;;;8.53;60.37;100234.53;4971234;28;8127;-74
2021/12/06 03:53:29;;;;;;;;;;;;;;;8.48;60.59;100234.25;4968400;28;6875;-74
2021/12/06 03:55:55;;;;;;;;;;;;;;;8.46;60.43;100240.13;4969661;28;6812;-74
2021/12/06 03:58:21;;;;;;;;;;;;;;;8.45;59.81;100233.22;4970312;28;6883;-74
2021/12/06 04:00:47;;;;;;;;;;;;;;;8.44;60.08;100236.56;4968334;28;7220;-74
2021/12/06 04:03:17;;;;;;;;;;;;;;;8.41;60.81;100237.31;4968132;28;6983;-74
2021/12/06 04:05:43;;;;;;;;;;;;;;;8.38;60.62;100236.25;4969412;28;6801;-74
2021/12/06 04:08:09;;;;;;;;;;;;;;;8.36;59.69;100241.28;4969249;28;6811;-74
2021/12/06 04:10:36;;;;;;;;;;;;;;;8.33;59.47;100248.78;4966818;28;7370;-74
2021/12/06 04:13:03;;;;;;;;;;;;;;;8.30;60.24;100244.38;4950862;28;6883;-74
2021/12/06 04:15:30;;;;;;;;;;;;;;;8.29;59.63;100249.38;4968611;28;6804;-74
2021/12/06 04:17:59;;;;;;;;;;;;;;;8.26;59.99;100245.03;4971010;28;6811;-74
2021/12/06 04:20:26;;;;;;;;;;;;;;;8.25;60.45;100242.38;4968005;28;6881;-74
2021/12/06 04:22:53;;;;;;;;;;;;;;;8.26;59.89;100251.78;4972198;28;6796;-74
2021/12/06 04:25:20;;;;;;;;;;;;;;;8.26;59.88;100247.56;4969081;28;8045;-74
2021/12/06 04:27:52;;;;;;;;;;;;;;;8.26;60.74;100250.13;4953593;28;6804;-74
2021/12/06 04:30:19;;;;;;;;;;;;;;;8.25;60.09;100243.22;4969457;28;6831;-74
2021/12/06 04:32:45;;;;;;;;;;;;;;;8.22;60.77;100248.19;4964831;28;6819;-74
2021/12/06 04:35:12;;;;;;;;;;;;;;;8.19;59.89;100254.00;4939144;28;6999;-74
2021/12/06 04:37:38;;;;;;;;;;;;;;;8.17;60.40;100253.03;4969270;28;7103;-73
2021/12/06 04:40:06;;;;;;;;;;;;;;;8.17;59.86;100263.25;4969469;28;7175;-73
2021/12/06 04:42:32;;;;;;;;;;;;;;;8.15;60.32;100264.84;4949812;28;8567;-73
2021/12/06 04:44:57;;;;;;;;;;;;;;;8.13;59.83;100258.78;4981650;28;6816;-74
2021/12/06 04:47:23;;;;;;;;;;;;;;;8.10;59.80;100261.13;4970854;28;6879;-74
2021/12/06 04:49:49;;;;;;;;;;;;;;;8.09;60.48;100261.94;4970051;28;7786;-74
2021/12/06 04:52:18;;;;;;;;;;;;;;;8.07;60.25;100263.53;4971078;28;6956;-74
2021/12/06 04:54:51;;;;;;;;;;;;;;;8.04;60.00;100265.91;4972743;28;6974;-74
2021/12/06 04:57:30;;;;;;;;;;;;;;;7.97;60.28;100271.47;4953434;28;7173;-74
2021/12/06 05:00:26;;;;;;;;;;;;;;;7.88;60.10;100277.81;4972964;28;7024;-74
2021/12/06 05:02:52;;;;;;;;;;;;;;;7.78;60.50;100276.41;4973115;28;6824;-74
2021/12/06 05:05:34;;;;;;;;;;;;;;;7.73;60.11;100282.91;4975222;28;6974;-74
2021/12/06 05:08:16;;;;;;;;;;;;;;;7.72;59.96;100290.47;4975060;28;6828;-74
2021/12/06 05:10:44;;;;;;;;;;;;;;;7.70;59.99;100297.16;4974221;28;8032;-74
2021/12/06 05:13:10;;;;;;;;;;;;;;;7.70;60.99;100302.25;4958305;28;6907;-73
2021/12/06 05:15:36;;;;;;;;;;;;;;;7.69;60.00;100297.97;4957222;28;7204;-73
2021/12/06 05:18:03;;;;;;;;;;;;;;;7.67;60.23;100291.88;4977540;28;7066;-73
2021/12/06 05:20:30;;;;;;;;;;;;;;;7.66;60.12;100306.31;4960128;28;6895;-73
2021/12/06 05:22:56;;;;;;;;;;;;;;;7.67;60.83;100302.09;4976758;28;6816;-73
2021/12/06 05:25:23;;;;;;;;;;;;;;;7.67;60.94;100297.84;4958640;28;8458;-73
2021/12/06 05:27:51;;;;;;;;;;;;;;;7.66;60.31;100315.66;4991019;28;6808;-73
2021/12/06 05:30:20;;;;;;;;;;;;;;;7.64;60.24;100313.00;4961810;28;7138;-73
2021/12/06 05:32:45;;;;;;;;;;;;;;;7.62;60.88;100314.59;4951724;28;7197;-73
2021/12/06 05:35:12;;;;;;;;;;;;;;;7.62;61.00;100312.88;4975267;28;7019;-73
2021/12/06 05:37:49;;;;;;;;;;;;;;;7.61;60.26;100310.28;4993731;28;7141;-73
2021/12/06 05:40:22;;;;;;;;;;;;;;;7.58;60.69;100310.06;4960965;28;6981;-73
2021/12/06 05:42:49;;;;;;;;;;;;;;;7.56;61.29;100319.31;4976758;28;6811;-73
2021/12/06 05:45:19;;;;;;;;;;;;;;;7.52;60.39;100315.69;4978965;28;6825;-73
2021/12/06 05:47:45;;;;;;;;;;;;;;;7.49;61.53;100318.97;4975501;28;6827;-73
2021/12/06 05:50:13;;;;;;;;;;;;;;;7.49;60.64;100324.06;4978093;28;6969;-73
2021/12/06 05:52:39;;;;;;;;;;;;;;;7.49;61.56;100334.28;4977437;28;6811;-73
2021/12/06 05:55:07;;;;;;;;;;;;;;;7.49;60.71;100333.38;4977866;28;6852;-73
2021/12/06 05:57:33;;;;;;;;;;;;;;;7.50;60.69;100335.13;4960612;28;6902;-74
2021/12/06 05:59:59;;;;;;;;;;;;;;;7.49;61.27;100335.94;4978128;28;7868;-74
2021/12/06 06:02:24;;;;;;;;;;;;;;;7.48;60.56;100334.16;4959591;28;6879;-74
2021/12/06 06:04:50;;;;;;;;;;;;;;;7.46;61.01;100333.22;4978921;28;6796;-74
2021/12/06 06:07:16;;;;;;;;;;;;;;;7.46;60.65;100330.66;4978662;28;6997;-74
2021/12/06 06:09:41;;;;;;;;;;;;;;;7.45;61.70;100327.22;4977270;28;7238;-74
2021/12/06 06:12:08;;;;;;;;;;;;;;;7.46;61.69;100328.09;4962059;28;6923;-73
2021/12/06 06:14:34;;;;;;;;;;;;;;;7.46;61.30;100338.31;4961398;28;6999;-73
2021/12/06 06:17:13;;;;;;;;;;;;;;;7.46;61.26;100340.84;4959195;28;7082;-73
2021/12/06 06:19:52;;;;;;;;;;;;;;;7.47;61.40;100352.81;4963536;28;7047;-73
2021/12/06 06:22:19;;;;;;;;;;;;;;;7.49;60.97;100346.13;4977902;28;6823;-73
2021/12/06 06:24:45;;;;;;;;;;;;;;;7.50;61.83;100338.59;4975809;28;6823;-73
2021/12/06 06:27:11;;;;;;;;;;;;;;;7.53;60.97;100339.53;4978041;28;6788;-73
2021/12/06 06:29:37;;;;;;;;;;;;;;;7.53;61.52;100334.44;4959806;28;6796;-73
2021/12/06 06:32:05;;;;;;;;;;;;;;;7.53;60.80;100330.19;4973664;28;6812;-73
2021/12/06 06:34:31;;;;;;;;;;;;;;;7.55;61.61;100340.50;4975618;28;6807;-73
2021/12/06 06:36:57;;;;;;;;;;;;;;;7.57;61.78;100338.91;4975079;28;6832;-73
2021/12/06 06:39:23;;;;;;;;;;;;;;;7.58;61.02;100333.03;4977901;28;6776;-73
2021/12/06 06:41:51;;;;;;;;;;;;;;;7.55;61.33;100333.75;4976335;28;7038;-73
2021/12/06 06:44:17;;;;;;;;;;;;;;;7.53;60.98;100345.50;4977170;28;6816;-73
2021/12/06 06:46:46;;;;;;;;;;;;;;;7.55;61.80;100343.94;4976353;28;6800;-73
2021/12/06 06:49:13;;;;;;;;;;;;;;;7.54;61.75;100346.41;4975469;28;6804;-73
2021/12/06 06:51:40;;;;;;;;;;;;;;;7.57;61.98;100350.03;4978672;28;6803;-73
2021/12/06 06:54:07;;;;;;;;;;;;;;;7.62;61.73;100363.91;4975568;28;6819;-73
2021/12/06 06:56:33;;;;;;;;;;;;;;;7.68;62.32;100362.53;4972809;28;6956;-74
2021/12/06 06:58:59;;;;;;;;;;;;;;;7.72;61.85;100364.47;4976773;28;6816;-74
2021/12/06 07:01:25;;;;;;;;;;;;;;;7.78;62.07;100372.47;4974858;28;6800;-74
2021/12/06 07:03:53;;;;;;;;;;;;;;;7.80;61.46;100383.66;4956017;28;6831;-74
2021/12/06 07:06:25;;;;;;;;;;;;;;;7.81;61.24;100382.84;4973503;28;6807;-74
2021/12/06 07:08:54;;;;;;;;;;;;;;;7.82;62.14;100379.50;4973656;28;6796;-74
2021/12/06 07:11:22;;;;;;;;;;;;;;;7.83;61.07;100381.31;4975553;28;8971;-74
2021/12/06 07:13:48;;;;;;;;;;;;;;;7.82;61.14;100384.63;4974048;28;6887;-74
2021/12/06 07:16:16;;;;;;;;;;;;;;;7.81;61.66;100389.66;4970652;28;6988;-74
2021/12/06 07:18:43;;;;;;;;;;;;;;;7.80;60.94;100390.44;4955931;28;6800;-74
2021/12/06 07:21:12;;;;;;;;;;;;;;;7.80;61.32;100387.91;4972764;28;6808;-73
2021/12/06 07:23:39;;;;;;;;;;;;;;;7.79;61.79;100394.66;4971591;28;7141;-74
2021/12/06 07:26:08;;;;;;;;;;;;;;;7.82;61.65;100384.63;4969989;28;6866;-74
2021/12/06 07:28:35;;;;;;;;;;;;;;;7.84;61.51;100393.28;4972941;28;7000;-74
2021/12/06 07:31:04;;;;;;;;;;;;;;;7.84;60.69;100390.72;4957037;28;7066;-74
2021/12/06 07:33:30;;;;;;;;;;;;;;;7.82;61.71;100389.72;4939659;28;7042;-74
2021/12/06 07:35:55;;;;;;;;;;;;;;;7.81;61.53;100393.06;4969028;28;6931;-74
2021/12/06 07:38:21;;;;;;;;;;;;;;;7.77;61.36;100391.13;4970063;28;8639;-74
2021/12/06 07:40:50;;;;;;;;;;;;;;;7.72;60.96;100395.97;4969426;28;6796;-74
2021/12/06 07:43:18;;;;;;;;;;;;;;;7.68;61.57;100405.91;4972148;28;6803;-74
2021/12/06 07:45:44;;;;;;;;;;;;;;;7.64;61.16;100415.94;4971849;28;6896;-74
2021/12/06 07:48:10;;;;;;;;;;;;;;;7.61;61.25;100413.16;4971539;28;7307;-74
2021/12/06 07:50:36;;;;;;;;;;;;;;;7.55;61.57;100417.94;4968299;28;6795;-74
2021/12/06 07:53:02;;;;;;;;;;;;;;;7.50;61.04;100410.00;4969537;28;6947;-74
2021/12/06 07:55:31;;;;;;;;;;;;;;;7.47;61.40;100407.22;4971053;28;7242;-74
2021/12/06 07:57:59;;;;;;;;;;;;;;;7.44;61.26;100412.16;4972619;28;6911;-74
2021/12/06 08:00:28;;;;;;;;;;;;;;;7.42;61.12;100413.75;4969801;28;7175;-74
2021/12/06 08:02:54;;;;;;;;;;;;;;;7.42;61.53;100418.84;4970136;28;6820;-74
2021/12/06 08:05:30;;;;;;;;;;;;;;;7.41;61.36;100427.28;4970846;28;6896;-74
2021/12/06 08:08:11;;;;;;;;;;;;;;;7.44;62.05;100424.06;4971137;28;7203;-73
2021/12/06 08:10:48;;;;;;;;;;;;;;;7.47;61.54;100434.44;4970285;28;6823;-73
2021/12/06 08:13:18;;;;;;;;;;;;;;;7.48;61.65;100429.44;4970192;28;6903;-73
2021/12/06 08:15:46;;;;;;;;;;;;;;;7.50;62.07;100427.84;4970337;28;6886;-73
2021/12/06 08:18:12;;;;;;;;;;;;;;;7.54;61.76;100423.81;4968445;28;6990;-73
2021/12/06 08:20:38;;;;;;;;;;;;;;;7.58;61.87;100430.84;4969439;28;7142;-73
2021/12/06 08:23:06;;;;;;;;;;;;;;;7.59;61.93;100432.63;4975028;28;6883;-73
2021/12/06 08:25:33;;;;;;;;;;;;;;;7.60;61.03;100431.81;4955389;28;6796;-73
2021/12/06 08:28:00;;;;;;;;;;;;;;;7.60;61.75;100429.28;4972161;28;8334;-73
2021/12/06 08:30:26;;;;;;;;;;;;;;;7.60;61.62;100429.28;4971617;28;6804;-73
2021/12/06 08:32:59;;;;;;;;;;;;;;;7.63;61.89;100429.47;4972824;28;7063;-73
2021/12/06 08:35:26;;;;;;;;;;;;;;;7.63;61.01;100426.94;4960482;28;7208;-73
2021/12/06 08:37:55;;;;;;;;;;;;;;;7.65;61.29;100419.34;4975434;28;6808;-73
2021/12/06 08:40:21;;;;;;;;;;;;;;;7.62;61.43;100417.47;4976981;28;6816;-73
2021/12/06 08:42:48;;;;;;;;;;;;;;;7.60;61.31;100413.97;4975786;28;7301;-73
2021/12/06 08:45:15;;;;;;;;;;;;;;;7.56;60.78;100419.69;4975489;28;6788;-73
2021/12/06 08:47:42;;;;;;;;;;;;;;;7.54;61.75;100418.72;4978127;28;6824;-73
2021/12/06 08:50:18;;;;;;;;;;;;;;;7.52;60.81;100412.63;4975809;28;6903;-74
2021/12/06 08:52:45;;;;;;;;;;;;;;;7.52;61.63;100411.75;4976510;28;6894;-74
2021/12/06 08:55:12;;;;;;;;;;;;;;;7.53;62.04;100414.38;4972527;28;7002;-73
2021/12/06 08:57:38;;;;;;;;;;;;;;;7.56;62.01;100416.25;4975797;28;6942;-73
2021/12/06 09:00:16;;;;;;;;;;;;;;;7.59;61.28;100422.41;4978311;28;6950;-73
2021/12/06 09:02:42;;;;;;;;;;;;;;;7.63;62.36;100423.47;4945800;28;7381;-73
2021/12/06 09:05:09;;;;;;;;;;;;;;;7.70;61.79;100424.72;4975647;28;7183;-73
2021/12/06 09:07:36;;;;;;;;;;;;;;;7.76;62.00;100420.00;4977375;28;6970;-73
2021/12/06 09:10:06;;;;;;;;;;;;;;;7.79;61.28;100425.28;4993225;28;6812;-73
2021/12/06 09:12:32;;;;;;;;;;;;;;;7.82;61.15;100433.09;4978107;28;7125;-73
2021/12/06 09:15:05;;;;;;;;;;;;;;;7.84;62.08;100418.78;4979577;28;6989;-73
2021/12/06 09:17:31;;;;;;;;;;;;;;;7.86;61.21;100414.66;4980250;28;6820;-73
2021/12/06 09:19:57;;;;;;;;;;;;;;;7.90;60.89;100419.13;4977423;28;6811;-73
2021/12/06 09:22:22;;;;;;;;;;;;;;;7.91;60.81;100426.00;4977845;28;6799;-74
2021/12/06 09:24:49;;;;;;;;;;;;;;;7.92;61.79;100429.44;4979311;28;7127;-74
2021/12/06 09:27:16;;;;;;;;;;;;;;;7.94;61.02;100430.41;4978390;28;7110;-74
2021/12/06 09:29:42;;;;;;;;;;;;;;;7.97;61.35;100437.38;4978261;28;6820;-74
2021/12/06 09:32:13;;;;;;;;;;;;;;;7.98;61.83;100442.56;4995425;28;6867;-74
2021/12/06 09:34:43;;;;;;;;;;;;;;;7.99;61.07;100438.34;4978392;28;6811;-74
2021/12/06 09:37:10;;;;;;;;;;;;;;;7.99;61.45;100441.78;4961569;28;7476;-74
2021/12/06 09:39:37;;;;;;;;;;;;;;;7.99;60.79;100444.34;4976273;28;6834;-74
2021/12/06 09:42:04;;;;;;;;;;;;;;;8.03;60.56;100451.38;4963262;28;6851;-75
2021/12/06 09:44:30;;;;;;;;;;;;;;;8.08;61.11;100443.97;4980159;28;7138;-74
2021/12/06 09:46:56;;;;;;;;;;;;;;;8.12;61.78;100445.94;4975773;28;6816;-74
2021/12/06 09:49:23;;;;;;;;;;;;;;;8.16;60.76;100441.88;4976002;28;6952;-74
2021/12/06 09:51:58;;;;;;;;;;;;;;;8.21;60.46;100440.47;4979399;28;7648;-74
2021/12/06 09:54:37;;;;;;;;;;;;;;;8.30;60.50;100435.91;4977094;28;6828;-73
2021/12/06 09:57:07;;;;;;;;;;;;;;;8.37;60.23;100424.34;4978810;28;6895;-73
2021/12/06 09:59:38;;;;;;;;;;;;;;;8.44;61.02;100423.03;4979142;28;7880;-75
2021/12/06 10:02:16;;;;;;;;;;;;;;;8.54;61.47;100424.47;4959373;28;8364;-74
2021/12/06 10:04:50;;;;;;;;;;;;;;;8.70;60.83;100422.00;4979058;28;6827;-73
2021/12/06 10:07:19;;;;;;;;;;;;;;;8.79;60.39;100418.16;4977190;28;7029;-74
2021/12/06 10:09:46;;;;;;;;;;;;;;;8.84;60.42;100419.31;4978090;28;7337;-74
2021/12/06 10:12:16;;;;;;;;;;;;;;;8.87;60.13;100416.91;4961976;28;6835;-74
2021/12/06 10:14:46;;;;;;;;;;;;;;;8.95;60.26;100414.81;4960171;28;6812;-74
2021/12/06 10:17:15;;;;;;;;;;;;;;;9.05;60.58;100416.19;4975657;28;7339;-74
2021/12/06 10:19:44;;;;;;;;;;;;;;;9.16;59.64;100410.84;4978554;28;6978;-74
2021/12/06 10:22:10;;;;;;;;;;;;;;;9.31;60.55;100415.00;4977727;28;7039;-74
2021/12/06 10:24:36;;;;;;;;;;;;;;;9.53;60.37;100409.34;4961224;28;6872;-74
2021/12/06 10:27:16;;;;;;;;;;;;;;;9.85;59.77;100397.38;4955740;28;6838;-74
2021/12/06 10:29:53;;;;;;;;;;;;;;;10.23;58.58;100399.19;4976119;28;6876;-74
2021/12/06 10:32:27;;;;;;;;;;;;;;;10.60;58.39;100392.44;4982359;28;7099;-74
2021/12/06 10:35:03;;;;;;;;;;;;;;;10.94;57.04;100391.47;4974582;28;7133;-74
2021/12/06 10:37:45;;;;;;;;;;;;;;;11.20;56.76;100387.53;4975395;28;7257;-74
2021/12/06 10:40:27;;;;;;;;;;;;;;;11.42;56.87;100385.94;4974992;28;7130;-74
2021/12/06 10:42:55;;;;;;;;;;;;;;;11.63;56.11;100385.09;4976418;28;6816;-74
2021/12/06 10:45:27;;;;;;;;;;;;;;;11.86;56.12;100377.50;4972795;28;6808;-74
2021/12/06 10:48:21;;;;;;;;;;;;;;;12.00;55.42;100371.28;4973777;28;6827;-74
2021/12/06 10:50:58;;;;;;;;;;;;;;;12.15;54.42;100372.72;4971313;28;6815;-74
2021/12/06 10:53:41;;;;;;;;;;;;;;;12.52;53.71;100374.22;4955694;28;6804;-74
2021/12/06 10:56:19;;;;;;;;;;;;;;;12.91;53.50;100381.72;4970237;28;6815;-74
2021/12/06 10:58:46;;;;;;;;;;;;;;;13.19;52.84;100369.03;4970662;28;6811;-74
2021/12/06 11:01:19;;;;;;;;;;;;;;;13.33;50.96;100359.25;4972639;28;6808;-73
2021/12/06 11:03:52;;;;;;;;;;;;;;;13.48;51.45;100346.09;4968849;28;6911;-73
2021/12/06 11:06:29;;;;;;;;;;;;;;;13.69;51.63;100348.50;4982869;28;6898;-73
2021/12/06 11:09:00;;;;;;;;;;;;;;;13.98;50.63;100340.03;4969983;28;6907;-73
2021/12/06 11:11:34;;;;;;;;;;;;;;;14.16;49.00;100324.28;4953608;28;7041;-73
2021/12/06 11:14:06;;;;;;;;;;;;;;;14.32;48.26;100320.47;4970227;28;6828;-73
2021/12/06 11:16:55;;;;;;;;;;;;;;;14.28;47.58;100324.66;4969023;28;6978;-73
2021/12/06 11:19:25;;;;;;;;;;;;;;;14.13;46.36;100326.75;4969959;28;7078;-73
2021/12/06 11:21:54;;;;;;;;;;;;;;;13.81;46.88;100316.25;4968672;28;7726;-74
2021/12/06 11:24:30;;;;;;;;;;;;;;;13.66;46.68;100312.34;4972157;28;6811;-74
2021/12/06 11:27:02;;;;;;;;;;;;;;;13.68;47.33;100307.28;4969926;28;6992;-74
2021/12/06 11:29:43;;;;;;;;;;;;;;;13.89;47.06;100304.50;4971719;28;6807;-74
2021/12/06 11:32:46;;;;;;;;;;;;;;;14.11;46.76;100294.91;4970109;28;6816;-74
2021/12/06 11:35:20;;;;;;;;;;;;;;;14.13;46.74;100290.69;4968411;28;6816;-74
2021/12/06 11:37:51;;;;;;;;;;;;;;;14.26;45.74;100285.06;4970787;28;7180;-74
2021/12/06 11:40:33;;;;;;;;;;;;;;;14.29;44.41;100290.34;4972407;28;6812;-74
2021/12/06 11:43:12;;;;;;;;;;;;;;;14.34;44.46;100276.72;4969434;28;6812;-74
2021/12/06 11:45:48;;;;;;;;;;;;;;;14.47;44.32;100278.81;4958054;28;7325;-74
2021/12/06 11:48:21;;;;;;;;;;;;;;;14.60;43.42;100279.22;4969734;28;6970;-74
2021/12/06 11:51:09;;;;;;;;;;;;;;;14.73;43.45;100276.19;4954005;28;6990;-74
2021/12/06 11:53:50;;;;;;;;;;;;;;;14.83;42.77;100269.59;4969446;28;6982;-74
2021/12/06 11:56:25;;;;;;;;;;;;;;;14.99;42.87;100263.16;4973001;28;6880;-74
2021/12/06 11:59:01;;;;;;;;;;;;;;;14.96;41.85;100263.94;4985288;28;7370;-74
2021/12/06 12:01:35;;;;;;;;;;;;;;;14.40;42.96;100257.13;4962833;28;7176;-74
2021/12/06 12:04:15;;;;;;;;;;;;;;;13.57;43.28;100255.41;4971540;28;6808;-74
2021/12/06 12:07:03;;;;;;;;;;;;;;;12.82;44.66;100262.22;4980631;28;6820;-73
2021/12/06 12:09:38;;;;;;;;;;;;;;;12.13;46.09;100263.91;4978983;28;6836;-73
2021/12/06 12:12:22;;;;;;;;;;;;;;;11.67;46.59;100271.47;4957699;28;6900;-73
2021/12/06 12:14:57;;;;;;;;;;;;;;;11.24;46.95;100275.66;4975544;28;6881;-73
2021/12/06 12:17:39;;;;;;;;;;;;;;;10.93;47.52;100269.19;4977833;28;7170;-73
2021/12/06 12:20:10;;;;;;;;;;;;;;;10.68;48.35;100268.97;4962874;28;6832;-73
2021/12/06 12:22:39;;;;;;;;;;;;;;;10.52;48.50;100263.94;4976691;28;7195;-73
2021/12/06 12:25:11;;;;;;;;;;;;;;;10.39;49.21;100259.91;4973374;28;6803;-73
2021/12/06 12:28:10;;;;;;;;;;;;;;;10.28;49.09;100256.84;4975033;28;8302;-73
2021/12/06 12:30:37;;;;;;;;;;;;;;;10.18;49.08;100252.09;4979005;28;6820;-73
2021/12/06 12:33:07;;;;;;;;;;;;;;;10.12;50.34;100245.88;4976977;28;6974;-73
2021/12/06 12:35:37;;;;;;;;;;;;;;;10.11;49.90;100248.38;4963367;28;7003;-73
2021/12/06 12:38:04;;;;;;;;;;;;;;;10.07;50.43;100255.03;4974175;28;6880;-73
2021/12/06 12:40:47;;;;;;;;;;;;;;;10.04;50.50;100242.06;4957314;28;6811;-73
2021/12/06 12:43:22;;;;;;;;;;;;;;;10.01;49.82;100231.69;4984721;28;6820;-73
2021/12/06 12:45:56;;;;;;;;;;;;;;;10.02;49.96;100232.56;4977523;28;6808;-73
2021/12/06 12:48:27;;;;;;;;;;;;;;;9.99;49.65;100223.94;4961033;28;7182;-74
2021/12/06 12:51:10;;;;;;;;;;;;;;;9.99;50.78;100215.38;4979700;28;6819;-74
2021/12/06 12:54:11;;;;;;;;;;;;;;;9.99;49.61;100215.38;4960365;28;7281;-74
2021/12/06 12:56:51;;;;;;;;;;;;;;;9.99;50.24;100205.13;4979626;28;7100;-74
2021/12/06 12:59:31;;;;;;;;;;;;;;;10.00;50.16;100194.97;4975225;28;7388;-74
2021/12/06 13:02:30;;;;;;;;;;;;;;;10.02;50.58;100195.03;4975661;28;6982;-74
2021/12/06 13:04:59;;;;;;;;;;;;;;;10.01;49.74;100190.72;4978875;28;7213;-74
2021/12/06 13:07:39;;;;;;;;;;;;;;;10.04;50.11;100188.28;4980241;28;6887;-74
2021/12/06 13:10:23;;;;;;;;;;;;;;;10.07;49.60;100188.44;4978970;28;7145;-74
2021/12/06 13:13:31;;;;;;;;;;;;;;;10.11;50.66;100174.09;4980128;28;6788;-74
2021/12/06 13:16:34;;;;;;;;;;;;;;;10.17;50.37;100176.94;4979661;28;7254;-74
2021/12/06 13:19:15;;;;;;;;;;;;;;;10.22;49.78;100177.16;4977849;28;6839;-74
2021/12/06 13:21:54;;;;;;;;;;;;;;;10.24;49.29;100170.44;4979873;28;6807;-74
2021/12/06 13:24:20;;;;;;;;;;;;;;;10.26;49.28;100153.44;4976040;28;7001;-74
2021/12/06 13:26:51;;;;;;;;;;;;;;;10.28;49.31;100151.81;4978886;28;6799;-74
2021/12/06 13:29:48;;;;;;;;;;;;;;;10.27;49.10;100147.50;4978368;28;7010;-74
2021/12/06 13:32:45;;;;;;;;;;;;;;;10.25;49.28;100151.69;4979733;28;7063;-74
2021/12/06 13:35:24;;;;;;;;;;;;;;;10.20;49.43;100146.34;4979479;28;7208;-74